createdAt,value
2023-04-19T00:00:40.028Z,9.06
2023-04-19T00:03:08.541Z,9.02
2023-04-19T00:05:38.331Z,9.06
2023-04-19T00:08:07.126Z,9.00
2023-04-19T00:10:36.029Z,9.02
2023-04-19T00:13:04.158Z,8.99
2023-04-19T00:15:35.081Z,8.95
2023-04-19T00:18:03.936Z,8.97
2023-04-19T00:20:32.135Z,8.92
2023-04-19T00:23:00.180Z,8.97
2023-04-19T00:25:28.492Z,8.94
2023-04-19T00:27:56.409Z,8.90
2023-04-19T00:30:24.392Z,8.92
2023-04-19T00:32:54.731Z,8.92
2023-04-19T00:35:25.945Z,8.98
2023-04-19T00:37:54.080Z,8.89
2023-04-19T00:40:22.122Z,8.87
2023-04-19T00:42:50.111Z,8.93
2023-04-19T00:45:18.591Z,8.90
2023-04-19T00:47:46.578Z,8.92
2023-04-19T00:50:16.243Z,8.93
2023-04-19T00:52:45.064Z,8.89
2023-04-19T00:55:13.876Z,8.89
2023-04-19T00:57:41.972Z,8.87
2023-04-19T01:00:11.764Z,8.86
2023-04-19T01:02:39.837Z,8.80
2023-04-19T01:05:08.615Z,8.82
2023-04-19T01:07:38.210Z,8.82
2023-04-19T01:10:07.280Z,8.80
2023-04-19T01:12:35.571Z,8.83
2023-04-19T01:15:05.495Z,8.80
2023-04-19T01:17:34.098Z,8.76
2023-04-19T01:20:02.504Z,8.73
2023-04-19T01:22:33.157Z,8.67
2023-04-19T01:25:01.241Z,8.71
2023-04-19T01:27:29.288Z,8.72
2023-04-19T01:29:58.791Z,8.66
2023-04-19T08:07:14.935Z,9.56
2023-04-19T08:09:43.063Z,9.57
2023-04-19T08:12:14.845Z,9.60
2023-04-19T08:15:00.646Z,9.62
2023-04-19T08:17:41.424Z,9.65
2023-04-19T08:20:12.110Z,9.71
2023-04-19T08:22:41.846Z,9.81
2023-04-19T08:25:11.018Z,9.82
2023-04-19T08:27:38.957Z,9.87
2023-04-19T08:30:09.289Z,9.94
2023-04-19T08:32:37.379Z,9.94
2023-04-19T08:35:06.285Z,10.00
2023-04-19T08:37:34.273Z,10.06
2023-04-19T08:40:03.878Z,10.18
2023-04-19T08:42:36.864Z,10.15
2023-04-19T08:47:51.995Z,10.25
2023-04-19T08:50:33.535Z,10.36
2023-04-19T08:55:36.813Z,10.34
2023-04-19T08:58:09.634Z,10.44
2023-04-19T09:00:41.226Z,10.44
2023-04-19T09:03:10.049Z,10.49
2023-04-19T09:05:38.494Z,10.63
2023-04-19T09:08:22.907Z,10.61
2023-04-19T09:10:56.081Z,10.73
2023-04-19T09:13:24.726Z,10.77
2023-04-19T09:15:53.722Z,10.88
2023-04-19T09:18:21.757Z,10.97
2023-04-19T09:20:50.156Z,10.93
2023-04-19T09:23:19.940Z,11.04
2023-04-19T09:26:19.047Z,10.92
2023-04-19T09:28:57.176Z,11.05
2023-04-19T09:31:43.266Z,11.10
2023-04-19T09:34:15.307Z,11.24
2023-04-19T09:36:43.589Z,11.41
2023-04-19T09:39:12.158Z,11.51
2023-04-19T09:41:53.423Z,11.47
2023-04-19T09:44:53.077Z,11.46
2023-04-19T09:47:24.044Z,11.40
2023-04-19T09:50:18.798Z,11.67
2023-04-19T09:52:49.865Z,11.53
2023-04-19T09:57:53.165Z,11.60
2023-04-19T10:00:22.720Z,11.56
2023-04-19T10:02:55.798Z,11.49
2023-04-19T10:05:26.574Z,11.45
2023-04-19T10:07:59.522Z,11.64
2023-04-19T10:10:41.238Z,11.65
2023-04-19T10:15:52.506Z,11.73
2023-04-19T10:18:24.271Z,11.64
2023-04-19T10:20:56.466Z,11.66
2023-04-19T10:23:24.644Z,11.79
2023-04-19T10:25:57.497Z,11.76
2023-04-19T10:28:29.739Z,11.76
2023-04-19T10:31:01.623Z,11.70
2023-04-19T10:33:31.669Z,11.71
2023-04-19T10:36:00.713Z,11.57
2023-04-19T10:38:39.903Z,11.63
2023-04-19T10:41:17.065Z,11.73
2023-04-19T10:43:48.469Z,11.67
2023-04-19T10:46:36.882Z,11.85
2023-04-19T10:49:06.063Z,11.92
2023-04-19T10:51:35.737Z,11.85
2023-04-19T10:54:04.742Z,11.68
2023-04-19T10:57:04.741Z,11.82
2023-04-19T10:59:35.066Z,11.77
2023-04-19T11:02:05.338Z,11.66
2023-04-19T11:05:11.473Z,11.91
2023-04-19T11:07:40.903Z,11.80
2023-04-19T11:10:10.430Z,11.78
2023-04-19T11:12:38.901Z,11.75
2023-04-19T11:15:11.937Z,11.54
2023-04-19T11:17:39.944Z,11.58
2023-04-19T11:20:10.869Z,11.49
2023-04-19T11:22:41.079Z,11.33
2023-04-19T11:25:11.058Z,11.40
2023-04-19T11:27:39.739Z,11.31
2023-04-19T11:30:11.631Z,11.40
2023-04-19T11:32:46.585Z,11.43
2023-04-19T11:35:14.640Z,11.26
2023-04-19T11:37:42.482Z,11.33
2023-04-19T11:40:15.467Z,11.37
2023-04-19T11:42:43.698Z,11.40
2023-04-19T11:45:25.953Z,11.23
2023-04-19T11:47:57.512Z,11.16
2023-04-19T11:50:33.620Z,11.19
2023-04-19T11:53:10.288Z,11.13
2023-04-19T11:55:38.207Z,10.88
2023-04-19T11:58:09.763Z,10.79
2023-04-19T12:00:39.272Z,10.89
2023-04-19T12:03:07.479Z,10.79
2023-04-19T12:05:35.831Z,10.67
2023-04-19T12:08:06.049Z,10.68
2023-04-19T12:10:34.260Z,10.67
2023-04-19T12:13:02.865Z,10.60
2023-04-19T12:15:44.986Z,10.55
2023-04-19T12:18:12.974Z,10.48
2023-04-19T12:20:45.877Z,10.44
2023-04-19T12:23:15.759Z,10.35
2023-04-19T12:25:44.844Z,10.45
2023-04-19T12:28:13.590Z,10.40
2023-04-19T12:30:42.808Z,10.27
2023-04-19T12:33:12.160Z,10.18
2023-04-19T12:35:41.089Z,10.23
2023-04-19T12:38:09.578Z,10.25
2023-04-19T12:40:37.524Z,10.12
2023-04-19T12:43:07.825Z,10.03
2023-04-19T12:45:35.846Z,9.95
2023-04-19T12:48:03.879Z,9.77
2023-04-19T12:50:33.172Z,9.70
2023-04-19T12:53:01.120Z,9.78
2023-04-19T12:55:28.976Z,9.72
2023-04-19T12:57:57.355Z,9.59
2023-04-19T13:00:25.960Z,9.61
2023-04-19T13:02:54.084Z,9.55
2023-04-19T13:05:22.151Z,9.36
2023-04-19T13:07:51.925Z,9.32
2023-04-19T13:10:21.120Z,9.28
2023-04-19T13:12:49.149Z,9.19
2023-04-19T13:15:17.293Z,9.17
2023-04-19T13:17:45.638Z,9.23
2023-04-19T13:20:14.118Z,9.16
2023-04-19T13:22:42.136Z,9.17
2023-04-19T13:25:11.925Z,9.18
2023-04-19T13:27:39.889Z,9.13
2023-04-19T13:30:09.424Z,9.02
2023-04-19T13:32:37.388Z,9.15
2023-04-19T13:35:05.918Z,9.10
2023-04-19T13:37:33.878Z,9.06
2023-04-19T13:40:17.356Z,9.06
2023-04-19T13:42:48.229Z,9.01
2023-04-19T13:45:16.174Z,9.04
2023-04-19T13:47:44.112Z,9.05
2023-04-19T13:50:13.012Z,8.97
2023-04-19T13:52:41.067Z,8.97
2023-04-19T13:55:09.936Z,8.97
2023-04-19T13:57:37.884Z,8.97
2023-04-19T14:00:09.012Z,9.02
2023-04-19T14:02:37.100Z,8.97
2023-04-19T14:05:05.621Z,8.91
2023-04-19T14:07:33.888Z,8.90
2023-04-19T14:10:01.833Z,8.88
2023-04-19T14:12:30.020Z,8.96
2023-04-19T14:14:57.824Z,8.92
2023-04-19T14:17:27.393Z,8.96
2023-04-19T14:19:57.042Z,8.93
2023-04-19T14:22:24.964Z,8.96
2023-04-19T14:24:52.902Z,8.99
2023-04-19T14:27:20.821Z,8.99
2023-04-19T14:29:48.690Z,9.04
2023-04-19T14:32:26.065Z,9.03
2023-04-19T14:34:56.615Z,9.00
2023-04-19T14:37:25.187Z,9.02
2023-04-19T14:39:53.429Z,9.07
2023-04-19T14:42:23.001Z,9.04
2023-04-19T14:44:52.368Z,9.10
2023-04-19T14:47:20.313Z,9.06
2023-04-19T14:49:48.331Z,9.07
2023-04-19T14:52:18.003Z,9.11
2023-04-19T14:54:46.123Z,9.12
2023-04-19T14:57:14.249Z,9.13
2023-04-19T14:59:42.240Z,9.12
2023-04-19T15:02:13.239Z,9.12
2023-04-19T15:04:42.289Z,9.13
2023-04-19T15:07:11.431Z,9.22
2023-04-19T15:09:41.535Z,9.18
2023-04-19T15:12:09.572Z,9.18
2023-04-19T15:14:37.367Z,9.21
2023-04-19T15:17:05.208Z,9.14
2023-04-19T15:19:33.249Z,9.17
2023-04-19T15:22:01.080Z,9.18
2023-04-19T15:24:29.106Z,9.14
2023-04-19T15:26:58.766Z,9.19
2023-04-19T15:29:26.634Z,9.22
2023-04-19T15:31:54.586Z,9.26
2023-04-19T15:34:22.553Z,9.25
2023-04-19T15:36:50.890Z,9.30
2023-04-19T15:39:18.898Z,9.22
2023-04-19T15:41:46.682Z,9.18
2023-04-19T15:44:15.892Z,9.20
2023-04-19T15:46:43.793Z,9.22
2023-04-19T15:49:11.716Z,9.16
2023-04-19T15:51:39.586Z,9.27
2023-04-19T15:54:07.543Z,9.31
2023-04-19T15:56:35.420Z,9.26
2023-04-19T15:59:03.535Z,9.24
2023-04-19T16:01:33.720Z,9.34
2023-04-19T16:04:03.233Z,9.35
2023-04-19T16:06:31.900Z,9.31
2023-04-19T16:08:59.897Z,9.39
2023-04-19T16:11:27.824Z,9.48
2023-04-19T16:13:55.731Z,9.57
2023-04-19T16:16:26.480Z,9.58
2023-04-19T16:18:55.982Z,9.56
2023-04-19T16:21:23.884Z,9.59
2023-04-19T16:23:51.691Z,9.62
2023-04-19T16:26:19.516Z,9.64
2023-04-19T16:28:48.093Z,9.64
2023-04-19T16:31:16.039Z,9.70
2023-04-19T16:33:43.943Z,9.65
2023-04-19T16:36:13.152Z,9.68
2023-04-19T16:38:41.435Z,9.72
2023-04-19T16:41:09.488Z,9.69
2023-04-19T16:43:37.427Z,9.77
2023-04-19T16:48:35.212Z,9.72
2023-04-19T16:51:03.060Z,9.71
2023-04-19T16:53:33.438Z,9.67
2023-04-19T16:56:03.535Z,9.68
2023-04-19T16:58:31.757Z,9.60
2023-04-19T17:00:59.697Z,9.64
2023-04-19T17:03:29.445Z,9.62
2023-04-19T17:05:57.574Z,9.58
2023-04-19T17:08:26.427Z,9.60
2023-04-19T17:10:55.845Z,9.61
2023-04-19T17:13:23.808Z,9.61
2023-04-19T17:15:51.744Z,9.62
2023-04-19T17:18:19.702Z,9.58
2023-04-19T17:20:47.564Z,9.53
2023-04-19T17:23:15.503Z,9.58
2023-04-19T17:25:43.617Z,9.58
2023-04-19T17:28:12.845Z,9.57
2023-04-19T17:30:40.720Z,9.59
2023-04-19T17:33:08.651Z,9.59
2023-04-19T17:35:36.580Z,9.59
2023-04-19T17:38:04.504Z,9.58
2023-04-19T17:40:32.371Z,9.58
2023-04-19T17:43:00.182Z,9.53
2023-04-19T17:45:29.384Z,9.52
2023-04-19T17:47:57.287Z,9.47
2023-04-19T17:50:26.597Z,9.45
2023-04-19T17:52:55.527Z,9.38
2023-04-19T17:55:23.411Z,9.37
2023-04-19T17:57:51.326Z,9.33
2023-04-19T18:00:19.576Z,9.24
2023-04-19T18:02:50.667Z,9.22
2023-04-19T18:05:18.631Z,9.20
2023-04-19T18:07:47.145Z,9.13
2023-04-19T18:10:15.080Z,9.09
2023-04-19T18:12:42.961Z,9.07
2023-04-19T18:15:11.533Z,9.04
2023-04-19T18:17:39.319Z,8.96
2023-04-19T18:20:10.783Z,8.95
2023-04-19T18:22:40.583Z,8.87
2023-04-19T18:25:09.228Z,8.84
2023-04-19T18:27:37.076Z,8.81
2023-04-19T18:30:05.669Z,8.80
2023-04-19T18:32:33.656Z,8.77
2023-04-19T18:35:03.930Z,8.76
2023-04-19T18:37:33.267Z,8.76
2023-04-19T18:40:01.234Z,8.70
2023-04-19T18:42:29.140Z,8.70
2023-04-19T18:44:56.943Z,8.66
2023-04-19T18:47:27.137Z,8.62
2023-04-19T18:52:25.908Z,8.52
2023-04-19T18:54:58.387Z,8.45
2023-04-19T18:57:27.419Z,8.48
2023-04-19T18:59:56.815Z,8.41
2023-04-19T19:02:25.117Z,8.40
2023-04-19T19:04:58.361Z,8.34
2023-04-19T19:10:06.318Z,8.31
2023-04-19T19:12:44.707Z,8.27
2023-04-19T19:15:12.723Z,8.19
2023-04-19T19:17:40.965Z,8.11
2023-04-19T19:20:10.645Z,8.16
2023-04-19T19:22:38.705Z,8.11
2023-04-19T19:25:08.878Z,8.03
2023-04-19T19:27:37.688Z,7.99
2023-04-19T19:30:07.559Z,7.92
2023-04-19T19:32:36.267Z,7.97
2023-04-19T19:35:08.071Z,7.86
2023-04-19T19:37:36.836Z,7.85
2023-04-19T19:40:06.649Z,7.83
2023-04-19T19:42:36.175Z,7.83
2023-04-19T19:45:04.450Z,7.73
2023-04-19T19:47:35.315Z,7.71
2023-04-19T19:50:46.629Z,7.68
2023-04-19T19:52:52.836Z,7.55
2023-04-19T19:55:20.722Z,7.60
2023-04-19T19:58:23.697Z,7.55
2023-04-19T20:00:45.931Z,7.54
2023-04-19T20:03:24.643Z,7.51
2023-04-19T20:06:05.495Z,7.46
2023-04-19T20:08:47.425Z,7.43
2023-04-19T20:11:15.367Z,7.40
2023-04-19T20:13:44.606Z,7.39
2023-04-19T20:16:12.560Z,7.33
2023-04-19T20:18:42.463Z,7.31
2023-04-19T20:21:11.168Z,7.26
2023-04-19T20:23:39.836Z,7.23
2023-04-19T20:26:07.869Z,7.19
2023-04-19T20:28:36.447Z,7.15
2023-04-19T20:31:05.640Z,7.12
2023-04-19T20:33:33.450Z,7.04
2023-04-19T20:36:01.920Z,7.04
2023-04-19T20:38:29.821Z,7.03
2023-04-19T20:40:57.770Z,6.99
2023-04-19T20:43:25.961Z,6.96
2023-04-19T20:45:53.863Z,6.89
2023-04-19T20:48:23.039Z,6.90
2023-04-19T20:50:50.867Z,6.84
2023-04-19T20:53:18.765Z,6.79
2023-04-19T20:55:46.719Z,6.79
2023-04-19T20:58:14.554Z,6.74
2023-04-19T21:00:42.374Z,6.64
2023-04-19T21:03:10.645Z,6.64
2023-04-19T21:05:39.951Z,6.55
2023-04-19T21:08:07.852Z,6.57
2023-04-19T21:10:35.645Z,6.56
2023-04-19T21:13:03.721Z,6.55
2023-04-19T21:15:31.680Z,6.51
2023-04-19T21:17:59.545Z,6.47
2023-04-19T21:20:27.376Z,6.45
2023-04-19T21:22:56.577Z,6.43
2023-04-19T21:25:24.465Z,6.40
2023-04-19T21:27:52.345Z,6.32
2023-04-19T21:30:22.584Z,6.32
2023-04-19T21:32:50.983Z,6.30
2023-04-19T21:35:19.129Z,6.26
2023-04-19T21:37:46.982Z,6.21
2023-04-19T21:40:16.279Z,6.17
2023-04-19T21:42:44.134Z,6.13
2023-04-19T21:45:12.648Z,6.13
2023-04-19T21:47:40.545Z,6.07
2023-04-19T21:50:10.107Z,6.04
2023-04-19T21:52:37.971Z,6.02
2023-04-19T21:55:06.951Z,5.98
2023-04-19T21:57:38.212Z,5.90
2023-04-19T22:00:10.152Z,5.90
2023-04-19T22:02:38.064Z,5.84
2023-04-19T22:05:07.258Z,5.78
2023-04-19T22:07:38.621Z,5.75
2023-04-19T22:10:07.880Z,5.75
2023-04-19T22:12:45.112Z,5.70
2023-04-19T22:15:19.406Z,5.67
2023-04-19T22:17:47.397Z,5.62
2023-04-19T22:20:15.778Z,5.60
2023-04-19T22:22:43.702Z,5.56
2023-04-19T22:25:11.745Z,5.50
2023-04-19T22:27:40.940Z,5.49
2023-04-19T22:30:09.526Z,5.38
2023-04-19T22:32:37.416Z,5.39
2023-04-19T22:35:05.874Z,5.37
2023-04-19T22:37:33.728Z,5.36
2023-04-19T22:40:01.715Z,5.28
2023-04-19T22:42:29.549Z,5.25
2023-04-19T22:44:58.993Z,5.20
2023-04-19T22:47:26.970Z,5.09
2023-04-19T22:49:55.155Z,5.14
2023-04-19T22:52:23.003Z,5.11
2023-04-19T22:54:50.939Z,5.15
2023-04-19T22:57:18.760Z,5.08
2023-04-19T22:59:46.578Z,5.02
2023-04-19T23:02:15.870Z,5.03
2023-04-19T23:04:44.426Z,5.00
2023-04-19T23:07:12.341Z,4.98
2023-04-19T23:09:41.704Z,4.95
2023-04-19T23:12:09.532Z,4.87
2023-04-19T23:14:38.717Z,4.87
2023-04-19T23:17:07.278Z,4.84
2023-04-19T23:19:36.772Z,4.78
2023-04-19T23:22:04.688Z,4.79
2023-04-19T23:24:32.562Z,4.75
2023-04-19T23:27:01.766Z,4.77
2023-04-19T23:29:29.724Z,4.75
2023-04-19T23:31:57.708Z,4.69
2023-04-19T23:34:25.697Z,4.72
2023-04-19T23:36:54.911Z,4.72
2023-04-19T23:39:22.834Z,4.65
2023-04-19T23:41:50.682Z,4.62
2023-04-19T23:44:19.349Z,4.51
2023-04-19T23:46:47.357Z,4.55
2023-04-19T23:49:16.023Z,4.46
2023-04-19T23:51:44.158Z,4.47
2023-04-19T23:54:13.336Z,4.43
2023-04-19T23:56:41.569Z,4.41
2023-04-19T23:59:09.386Z,4.37
